createdAt,value
2022-09-06T00:00:42.068Z,17.70
2022-09-06T00:03:09.168Z,17.70
2022-09-06T00:05:36.283Z,17.70
2022-09-06T00:08:03.907Z,17.70
2022-09-06T00:10:31.187Z,17.70
2022-09-06T00:13:05.558Z,17.70
2022-09-06T00:15:32.446Z,17.60
2022-09-06T00:18:00.507Z,17.60
2022-09-06T00:20:28.594Z,17.60
2022-09-06T00:22:59.437Z,17.50
2022-09-06T00:25:27.036Z,17.50
2022-09-06T00:27:58.335Z,17.50
2022-09-06T00:30:25.188Z,17.50
2022-09-06T00:32:52.058Z,17.50
2022-09-06T00:35:19.211Z,17.40
2022-09-06T00:37:45.961Z,17.40
2022-09-06T00:40:12.926Z,17.40
2022-09-06T00:42:39.717Z,17.40
2022-09-06T00:45:07.384Z,17.40
2022-09-06T00:47:35.434Z,17.40
2022-09-06T00:50:02.208Z,17.30
2022-09-06T00:52:28.988Z,17.40
2022-09-06T00:54:55.813Z,17.30
2022-09-06T00:57:27.056Z,17.30
2022-09-06T00:59:54.369Z,17.30
2022-09-06T01:02:21.446Z,17.30
2022-09-06T01:04:48.338Z,17.20
2022-09-06T01:07:24.032Z,17.20
2022-09-06T01:10:12.845Z,17.20
2022-09-06T01:13:01.693Z,17.20
2022-09-06T01:15:59.102Z,17.20
2022-09-06T01:18:44.597Z,17.20
2022-09-06T01:21:39.815Z,17.10
2022-09-06T01:24:30.919Z,17.10
2022-09-06T01:27:15.316Z,17.00
2022-09-06T01:29:44.940Z,17.00
2022-09-06T01:32:17.165Z,17.00
2022-09-06T01:34:47.681Z,17.00
2022-09-06T01:37:16.129Z,16.90
2022-09-06T01:39:43.055Z,16.90
2022-09-06T01:42:18.418Z,16.90
2022-09-06T01:44:53.838Z,16.90
2022-09-06T01:47:35.541Z,16.90
2022-09-06T01:50:31.998Z,16.90
2022-09-06T01:53:16.894Z,16.90
2022-09-06T01:56:10.825Z,16.90
2022-09-06T01:59:10.953Z,16.80
2022-09-06T02:02:00.534Z,16.80
2022-09-06T02:04:30.231Z,16.90
2022-09-06T02:07:13.031Z,16.90
2022-09-06T02:09:43.634Z,16.90
2022-09-06T02:12:13.181Z,16.90
2022-09-06T02:14:41.849Z,16.90
2022-09-06T02:17:09.995Z,16.90
2022-09-06T02:19:51.364Z,16.80
2022-09-06T02:22:19.905Z,16.80
2022-09-06T02:24:47.105Z,16.90
2022-09-06T02:27:14.564Z,16.90
2022-09-06T02:29:41.336Z,16.90
2022-09-06T02:32:11.179Z,16.90
2022-09-06T02:34:39.514Z,16.80
2022-09-06T02:37:06.607Z,16.80
2022-09-06T02:39:33.668Z,16.80
2022-09-06T02:42:00.873Z,16.80
2022-09-06T02:44:27.616Z,16.80
2022-09-06T02:46:57.102Z,16.80
2022-09-06T02:49:24.421Z,16.80
2022-09-06T02:51:51.130Z,16.70
2022-09-06T02:54:17.962Z,16.80
2022-09-06T02:56:47.059Z,16.80
2022-09-06T02:59:16.982Z,16.80
2022-09-06T03:01:43.730Z,16.80
2022-09-06T03:04:10.487Z,16.70
2022-09-06T03:06:37.194Z,16.70
2022-09-06T03:09:04.037Z,16.70
2022-09-06T03:11:30.749Z,16.70
2022-09-06T03:13:57.589Z,16.70
2022-09-06T03:16:24.369Z,16.70
2022-09-06T03:18:51.217Z,16.70
2022-09-06T03:21:17.963Z,16.70
2022-09-06T03:23:45.875Z,16.70
2022-09-06T03:26:12.680Z,16.70
2022-09-06T03:28:39.616Z,16.70
2022-09-06T03:31:06.643Z,16.60
2022-09-06T03:33:33.508Z,16.60
2022-09-06T03:36:01.324Z,16.60
2022-09-06T03:38:28.560Z,16.60
2022-09-06T03:40:55.491Z,16.60
2022-09-06T03:43:23.257Z,16.60
2022-09-06T03:45:51.754Z,16.60
2022-09-06T03:48:19.029Z,16.60
2022-09-06T03:50:46.634Z,16.50
2022-09-06T03:53:13.737Z,16.50
2022-09-06T03:55:40.621Z,16.50
2022-09-06T03:58:07.394Z,16.50
2022-09-06T04:00:34.158Z,16.50
2022-09-06T04:03:01.955Z,16.50
2022-09-06T04:05:28.838Z,16.50
2022-09-06T04:07:55.574Z,16.60
2022-09-06T04:10:22.381Z,16.60
2022-09-06T04:12:49.187Z,16.60
2022-09-06T04:15:16.054Z,16.60
2022-09-06T04:17:46.385Z,16.60
2022-09-06T04:20:14.088Z,16.70
2022-09-06T04:22:40.807Z,16.60
2022-09-06T04:25:08.190Z,16.70
2022-09-06T04:27:34.945Z,16.70
2022-09-06T04:30:01.790Z,16.70
2022-09-06T04:32:28.562Z,16.70
2022-09-06T04:34:55.287Z,16.70
2022-09-06T04:37:22.105Z,16.70
2022-09-06T04:39:49.012Z,16.70
2022-09-06T04:42:15.881Z,16.70
2022-09-06T04:44:42.736Z,16.70
2022-09-06T04:47:14.881Z,16.70
2022-09-06T04:49:42.392Z,16.70
2022-09-06T04:52:09.140Z,16.70
2022-09-06T04:54:35.876Z,16.70
2022-09-06T04:57:02.859Z,16.70
2022-09-06T04:59:29.653Z,16.70
2022-09-06T05:01:56.507Z,16.70
2022-09-06T05:04:29.548Z,16.70
2022-09-06T05:07:06.319Z,16.70
2022-09-06T05:09:33.372Z,16.70
2022-09-06T05:12:00.265Z,16.70
2022-09-06T05:14:27.658Z,16.70
2022-09-06T05:16:54.581Z,16.80
2022-09-06T05:19:21.619Z,16.70
2022-09-06T05:21:48.355Z,16.80
2022-09-06T05:24:15.108Z,16.70
2022-09-06T05:26:41.847Z,16.80
2022-09-06T05:29:08.752Z,16.80
2022-09-06T05:31:35.845Z,16.80
2022-09-06T05:34:02.807Z,16.80
2022-09-06T05:36:30.406Z,16.80
2022-09-06T05:38:57.316Z,16.80
2022-09-06T05:41:24.125Z,16.80
2022-09-06T05:43:50.930Z,16.80
2022-09-06T05:46:17.862Z,16.80
2022-09-06T05:48:44.669Z,16.80
2022-09-06T05:51:12.671Z,16.80
2022-09-06T05:53:41.135Z,16.80
2022-09-06T05:56:08.154Z,16.90
2022-09-06T05:58:34.970Z,16.90
2022-09-06T06:01:21.612Z,16.90
2022-09-06T06:03:55.465Z,17.00
2022-09-06T06:06:22.380Z,17.00
2022-09-06T06:08:49.126Z,17.00
2022-09-06T06:11:16.228Z,17.10
2022-09-06T06:13:43.450Z,17.10
2022-09-06T06:16:11.824Z,17.20
2022-09-06T06:18:38.971Z,17.20
2022-09-06T06:21:08.567Z,17.30
2022-09-06T06:23:35.303Z,17.30
2022-09-06T06:26:02.027Z,17.40
2022-09-06T06:28:29.027Z,17.50
2022-09-06T06:30:55.929Z,17.50
2022-09-06T06:33:22.711Z,17.60
2022-09-06T06:36:02.700Z,17.60
2022-09-06T06:38:33.352Z,17.70
2022-09-06T06:41:05.835Z,17.80
2022-09-06T06:43:37.585Z,17.80
2022-09-06T06:46:09.531Z,17.80
2022-09-06T06:48:37.063Z,17.90
2022-09-06T06:51:03.973Z,17.90
2022-09-06T06:53:30.748Z,17.90
2022-09-06T06:55:57.564Z,17.90
2022-09-06T06:58:24.449Z,18.00
2022-09-06T07:00:51.270Z,18.10
2022-09-06T07:03:18.414Z,18.10
2022-09-06T07:08:33.904Z,18.30
2022-09-06T07:11:00.651Z,18.30
2022-09-06T07:13:27.705Z,18.40
2022-09-06T07:16:10.758Z,18.40
2022-09-06T07:18:41.887Z,18.40
2022-09-06T07:26:31.179Z,18.50
2022-09-06T07:28:59.573Z,18.60
2022-09-06T07:34:14.553Z,18.70
2022-09-06T07:36:41.283Z,18.70
2022-09-06T07:39:08.120Z,18.60
2022-09-06T07:41:34.861Z,18.70
2022-09-06T07:44:01.838Z,18.70
2022-09-06T07:46:28.681Z,18.80
2022-09-06T07:48:55.461Z,18.80
2022-09-06T07:51:22.499Z,18.90
2022-09-06T07:54:07.454Z,18.90
2022-09-06T07:56:42.226Z,19.00
2022-09-06T07:59:09.384Z,19.20
2022-09-06T08:01:39.401Z,19.20
2022-09-06T08:04:10.657Z,19.30
2022-09-06T08:09:25.463Z,19.40
2022-09-06T08:11:52.792Z,19.40
2022-09-06T08:14:20.347Z,19.50
2022-09-06T08:16:47.180Z,19.50
2022-09-06T08:19:13.938Z,19.60
2022-09-06T08:21:40.673Z,19.70
2022-09-06T08:24:09.632Z,19.70
2022-09-06T08:26:39.820Z,19.70
2022-09-06T08:29:07.698Z,19.70
2022-09-06T08:31:35.415Z,19.60
2022-09-06T08:34:02.625Z,19.60
2022-09-06T08:36:30.608Z,19.60
2022-09-06T08:39:01.043Z,19.60
2022-09-06T08:41:45.970Z,19.60
2022-09-06T08:47:19.102Z,19.50
2022-09-06T08:50:05.802Z,19.50
2022-09-06T08:53:06.131Z,19.60
2022-09-06T08:55:46.652Z,19.60
2022-09-06T08:58:45.703Z,19.70
2022-09-06T09:01:17.723Z,19.70
2022-09-06T09:03:44.800Z,19.80
2022-09-06T09:06:11.670Z,19.80
2022-09-06T09:08:50.478Z,19.80
2022-09-06T09:11:18.812Z,19.70
2022-09-06T09:14:10.255Z,19.70
2022-09-06T09:16:37.087Z,19.60
2022-09-06T09:19:05.017Z,19.60
2022-09-06T09:21:33.950Z,19.60
2022-09-06T09:24:05.863Z,19.60
2022-09-06T09:26:42.484Z,19.70
2022-09-06T09:29:14.077Z,19.70
2022-09-06T09:31:53.383Z,19.70
2022-09-06T09:34:33.821Z,19.80
2022-09-06T09:40:32.083Z,19.80
2022-09-06T09:43:18.973Z,20.00
2022-09-06T09:45:45.984Z,20.00
2022-09-06T09:48:30.875Z,20.00
2022-09-06T09:50:57.616Z,20.00
2022-09-06T09:53:24.696Z,20.00
2022-09-06T09:55:58.059Z,20.10
2022-09-06T09:58:30.001Z,20.20
2022-09-06T10:01:33.671Z,20.30
2022-09-06T10:07:10.170Z,20.20
2022-09-06T10:09:38.856Z,20.20
2022-09-06T10:12:05.987Z,20.30
2022-09-06T10:14:39.865Z,20.30
2022-09-06T10:17:06.697Z,20.40
2022-09-06T10:19:43.366Z,20.40
2022-09-06T10:22:20.981Z,20.40
2022-09-06T10:25:14.137Z,20.40
2022-09-06T10:28:11.187Z,20.50
2022-09-06T10:31:00.368Z,20.40
2022-09-06T10:33:47.380Z,20.50
2022-09-06T10:36:15.973Z,20.50
2022-09-06T10:38:58.407Z,20.60
2022-09-06T10:41:51.744Z,20.80
2022-09-06T10:44:23.223Z,20.80
2022-09-06T10:46:51.453Z,20.90
2022-09-06T10:49:19.116Z,20.80
2022-09-06T10:51:50.104Z,20.90
2022-09-06T10:54:23.632Z,21.00
2022-09-06T10:56:58.770Z,21.10
2022-09-06T10:59:36.271Z,21.10
2022-09-06T11:02:16.089Z,21.10
2022-09-06T11:07:34.601Z,21.10
2022-09-06T11:10:21.849Z,21.10
2022-09-06T11:12:59.196Z,21.20
2022-09-06T11:15:27.661Z,21.20
2022-09-06T11:18:01.695Z,21.30
2022-09-06T11:20:43.797Z,21.30
2022-09-06T11:23:52.444Z,21.30
2022-09-06T11:26:41.058Z,21.30
2022-09-06T11:29:09.487Z,21.30
2022-09-06T11:34:45.708Z,21.50
2022-09-06T11:37:27.615Z,21.40
2022-09-06T11:42:53.609Z,21.40
2022-09-06T11:45:21.943Z,21.40
2022-09-06T11:47:49.552Z,21.50
2022-09-06T11:50:22.395Z,21.50
2022-09-06T11:53:00.226Z,21.50
2022-09-06T11:55:37.477Z,21.50
2022-09-06T11:58:26.493Z,21.50
2022-09-06T12:01:12.047Z,21.60
2022-09-06T12:04:07.348Z,21.60
2022-09-06T12:06:42.805Z,21.70
2022-09-06T12:09:31.226Z,21.80
2022-09-06T12:11:58.447Z,21.90
2022-09-06T12:14:39.617Z,22.10
2022-09-06T12:17:07.895Z,22.10
2022-09-06T12:19:53.378Z,22.20
2022-09-06T12:22:29.297Z,22.40
2022-09-06T12:25:18.542Z,22.60
2022-09-06T12:27:55.438Z,22.80
2022-09-06T12:30:36.117Z,22.80
2022-09-06T12:33:17.162Z,22.80
2022-09-06T12:35:59.818Z,22.70
2022-09-06T12:38:27.470Z,22.60
2022-09-06T12:40:58.957Z,22.70
2022-09-06T12:43:25.780Z,22.70
2022-09-06T12:45:52.607Z,22.70
2022-09-06T12:48:28.287Z,22.80
2022-09-06T12:51:05.595Z,22.80
2022-09-06T12:53:34.210Z,23.00
2022-09-06T12:56:08.882Z,23.00
2022-09-06T12:58:36.302Z,23.10
2022-09-06T13:01:14.154Z,23.20
2022-09-06T13:03:45.701Z,23.20
2022-09-06T13:06:20.401Z,23.20
2022-09-06T13:08:53.803Z,23.20
2022-09-06T13:11:25.104Z,23.20
2022-09-06T13:13:52.974Z,23.40
2022-09-06T13:16:27.190Z,23.50
2022-09-06T13:18:54.036Z,23.30
2022-09-06T13:21:32.768Z,23.50
2022-09-06T13:24:03.871Z,23.60
2022-09-06T13:26:38.835Z,23.70
2022-09-06T13:29:17.912Z,23.90
2022-09-06T13:31:48.129Z,24.00
2022-09-06T13:34:31.977Z,24.10
2022-09-06T13:37:03.973Z,23.90
2022-09-06T13:39:32.115Z,23.90
2022-09-06T13:42:07.386Z,23.80
2022-09-06T13:44:35.838Z,23.70
2022-09-06T13:47:02.928Z,23.70
2022-09-06T13:49:29.862Z,23.40
2022-09-06T13:52:05.740Z,23.20
2022-09-06T13:54:33.780Z,23.00
2022-09-06T13:57:01.768Z,23.10
2022-09-06T13:59:28.941Z,23.20
2022-09-06T14:02:07.699Z,23.20
2022-09-06T14:04:35.666Z,23.10
2022-09-06T14:07:02.792Z,23.00
2022-09-06T14:09:29.835Z,22.90
2022-09-06T14:11:57.016Z,23.00
2022-09-06T14:14:24.767Z,23.00
2022-09-06T14:16:51.536Z,22.90
2022-09-06T14:19:18.273Z,22.80
2022-09-06T14:21:45.009Z,22.70
2022-09-06T14:24:11.887Z,22.70
2022-09-06T14:26:38.809Z,23.10
2022-09-06T14:29:05.716Z,23.40
2022-09-06T14:31:32.710Z,24.00
2022-09-06T14:33:59.981Z,24.00
2022-09-06T14:36:29.290Z,24.00
2022-09-06T14:38:57.464Z,23.90
2022-09-06T14:41:24.253Z,23.60
2022-09-06T14:43:54.413Z,23.40
2022-09-06T14:46:22.113Z,23.30
2022-09-06T14:48:49.134Z,23.20
2022-09-06T14:51:23.836Z,23.20
2022-09-06T14:53:54.823Z,23.20
2022-09-06T14:56:21.650Z,23.20
2022-09-06T14:58:48.797Z,23.00
2022-09-06T15:01:19.514Z,23.00
2022-09-06T15:03:48.705Z,23.40
2022-09-06T15:06:15.923Z,24.10
2022-09-06T15:08:42.848Z,24.50
2022-09-06T15:11:09.963Z,25.10
2022-09-06T15:13:40.249Z,24.70
2022-09-06T15:16:08.014Z,24.60
2022-09-06T15:18:34.819Z,25.00
2022-09-06T15:21:11.717Z,25.10
2022-09-06T15:23:39.741Z,24.70
2022-09-06T15:26:08.102Z,24.40
2022-09-06T15:28:36.125Z,24.20
2022-09-06T15:31:03.428Z,24.00
2022-09-06T15:33:31.331Z,23.80
2022-09-06T15:35:58.176Z,23.60
2022-09-06T15:38:25.009Z,23.40
2022-09-06T15:40:52.184Z,23.20
2022-09-06T15:43:19.041Z,23.10
2022-09-06T15:45:48.157Z,23.10
2022-09-06T15:48:16.016Z,23.00
2022-09-06T15:50:51.385Z,22.90
2022-09-06T15:53:19.424Z,22.80
2022-09-06T15:55:58.483Z,22.70
2022-09-06T15:58:26.644Z,22.60
2022-09-06T16:01:20.669Z,22.50
2022-09-06T16:03:48.737Z,22.30
2022-09-06T16:08:55.563Z,22.20
2022-09-06T16:11:22.378Z,22.10
2022-09-06T16:13:49.499Z,21.90
2022-09-06T16:16:16.948Z,22.00
2022-09-06T16:18:45.043Z,21.90
2022-09-06T16:21:23.929Z,21.80
2022-09-06T16:23:54.082Z,21.60
2022-09-06T16:26:21.936Z,21.10
2022-09-06T16:28:49.899Z,20.60
2022-09-06T16:31:17.131Z,20.30
2022-09-06T16:33:45.514Z,20.00
2022-09-06T16:36:13.887Z,19.80
2022-09-06T16:38:41.043Z,19.60
2022-09-06T16:41:25.231Z,19.60
2022-09-06T16:43:55.433Z,19.60
2022-09-06T16:46:23.459Z,19.40
2022-09-06T16:48:54.016Z,19.40
2022-09-06T16:51:21.998Z,19.30
2022-09-06T16:53:49.317Z,19.20
2022-09-06T16:56:17.887Z,19.20
2022-09-06T16:58:48.648Z,19.00
2022-09-06T17:01:15.800Z,18.90
2022-09-06T17:03:42.720Z,18.80
2022-09-06T17:06:09.582Z,18.80
2022-09-06T17:08:36.506Z,18.80
2022-09-06T17:11:08.670Z,18.70
2022-09-06T17:13:35.489Z,18.70
2022-09-06T17:16:22.375Z,18.80
2022-09-06T17:18:50.161Z,18.70
2022-09-06T17:21:17.030Z,18.70
2022-09-06T17:23:43.755Z,18.70
2022-09-06T17:26:10.541Z,18.70
2022-09-06T17:28:37.585Z,18.70
2022-09-06T17:31:05.442Z,18.70
2022-09-06T17:33:32.267Z,18.80
2022-09-06T17:36:11.990Z,18.80
2022-09-06T17:38:39.719Z,18.80
2022-09-06T17:41:06.674Z,18.80
2022-09-06T17:43:36.079Z,18.80
2022-09-06T17:46:03.872Z,18.80
2022-09-06T17:48:31.355Z,18.80
2022-09-06T17:51:08.023Z,18.80
2022-09-06T17:53:41.095Z,18.90
2022-09-06T17:56:09.217Z,18.90
2022-09-06T17:58:36.639Z,18.90
2022-09-06T18:01:14.055Z,18.90
2022-09-06T18:03:41.667Z,18.90
2022-09-06T18:06:10.530Z,18.90
2022-09-06T18:08:37.777Z,19.00
2022-09-06T18:11:09.249Z,18.90
2022-09-06T18:13:36.432Z,18.90
2022-09-06T18:16:04.243Z,19.00
2022-09-06T18:18:34.278Z,19.00
2022-09-06T18:21:01.485Z,19.00
2022-09-06T18:23:31.197Z,19.00
2022-09-06T18:26:02.433Z,19.00
2022-09-06T18:28:29.540Z,19.00
2022-09-06T18:31:00.229Z,18.90
2022-09-06T18:33:28.139Z,18.80
2022-09-06T18:35:54.954Z,18.70
2022-09-06T18:38:21.940Z,18.60
2022-09-06T18:40:55.399Z,18.60
2022-09-06T18:43:22.875Z,18.50
2022-09-06T18:45:50.628Z,18.50
2022-09-06T18:48:18.236Z,18.50
2022-09-06T18:50:45.040Z,18.50
2022-09-06T18:53:11.883Z,18.50
2022-09-06T18:55:41.102Z,18.50
2022-09-06T18:58:08.006Z,18.50
2022-09-06T19:00:35.362Z,18.50
2022-09-06T19:03:02.101Z,18.40
2022-09-06T19:05:28.900Z,18.40
2022-09-06T19:07:55.692Z,18.30
2022-09-06T19:10:22.461Z,18.30
2022-09-06T19:12:53.017Z,18.30
2022-09-06T19:15:20.068Z,18.20
2022-09-06T19:17:50.385Z,18.20
2022-09-06T19:20:18.394Z,18.20
2022-09-06T19:22:45.214Z,18.20
2022-09-06T19:25:11.898Z,18.20
2022-09-06T19:27:38.671Z,18.20
2022-09-06T19:30:07.156Z,18.10
2022-09-06T19:32:34.295Z,18.10
2022-09-06T19:35:01.510Z,18.00
2022-09-06T19:37:29.521Z,18.00
2022-09-06T19:39:56.591Z,17.90
2022-09-06T19:42:23.484Z,18.00
2022-09-06T19:44:50.196Z,17.90
2022-09-06T19:47:17.943Z,17.80
2022-09-06T19:49:44.807Z,17.80
2022-09-06T19:52:11.635Z,17.80
2022-09-06T19:54:38.698Z,17.80
2022-09-06T19:57:06.159Z,17.70
2022-09-06T19:59:36.155Z,17.60
2022-09-06T20:02:03.439Z,17.60
2022-09-06T20:04:30.432Z,17.60
2022-09-06T20:06:57.609Z,17.50
2022-09-06T20:09:24.554Z,17.50
2022-09-06T20:11:51.481Z,17.50
2022-09-06T20:14:18.937Z,17.50
2022-09-06T20:16:45.770Z,17.50
2022-09-06T20:19:14.626Z,17.50
2022-09-06T20:21:41.419Z,17.50
2022-09-06T20:24:08.595Z,17.40
2022-09-06T20:26:35.381Z,17.40
2022-09-06T20:29:02.746Z,17.40
2022-09-06T20:31:30.420Z,17.40
2022-09-06T20:34:00.473Z,17.40
2022-09-06T20:36:27.593Z,17.30
2022-09-06T20:38:54.657Z,17.30
2022-09-06T20:41:25.456Z,17.30
2022-09-06T20:43:59.168Z,17.30
2022-09-06T20:46:29.523Z,17.30
2022-09-06T20:48:57.861Z,17.20
2022-09-06T20:51:24.893Z,17.20
2022-09-06T20:53:53.318Z,17.20
2022-09-06T20:56:24.825Z,17.10
2022-09-06T20:58:56.608Z,17.10
2022-09-06T21:01:25.040Z,17.10
2022-09-06T21:03:56.836Z,17.00
2022-09-06T21:06:24.091Z,17.00
2022-09-06T21:08:50.955Z,16.90
2022-09-06T21:11:18.004Z,16.90
2022-09-06T21:13:48.981Z,16.90
2022-09-06T21:16:18.347Z,16.80
2022-09-06T21:18:53.136Z,16.80
2022-09-06T21:21:19.890Z,16.80
2022-09-06T21:23:46.706Z,16.70
2022-09-06T21:26:15.937Z,16.70
2022-09-06T21:28:43.182Z,16.70
2022-09-06T21:31:14.849Z,16.60
2022-09-06T21:33:43.527Z,16.60
2022-09-06T21:36:14.938Z,16.60
2022-09-06T21:38:43.738Z,16.60
2022-09-06T21:41:10.828Z,16.60
2022-09-06T21:43:37.879Z,16.50
2022-09-06T21:46:06.178Z,16.60
2022-09-06T21:48:36.835Z,16.50
2022-09-06T21:51:03.729Z,16.50
2022-09-06T21:53:30.479Z,16.50
2022-09-06T21:56:00.704Z,16.50
2022-09-06T21:58:27.778Z,16.50
2022-09-06T22:00:57.910Z,16.50
2022-09-06T22:03:25.681Z,16.50
2022-09-06T22:05:52.445Z,16.50
2022-09-06T22:08:19.736Z,16.50
2022-09-06T22:10:48.388Z,16.50
2022-09-06T22:13:18.977Z,16.50
2022-09-06T22:15:45.868Z,16.50
2022-09-06T22:18:13.833Z,16.40
2022-09-06T22:20:40.595Z,16.40
2022-09-06T22:23:07.848Z,16.40
2022-09-06T22:25:34.608Z,16.40
2022-09-06T22:28:01.550Z,16.40
2022-09-06T22:30:28.397Z,16.40
2022-09-06T22:32:55.081Z,16.40
2022-09-06T22:35:21.980Z,16.40
2022-09-06T22:37:48.737Z,16.40
2022-09-06T22:40:15.488Z,16.40
2022-09-06T22:42:42.270Z,16.40
2022-09-06T22:45:09.368Z,16.30
2022-09-06T22:47:36.097Z,16.30
2022-09-06T22:50:02.996Z,16.30
2022-09-06T22:52:29.676Z,16.20
2022-09-06T22:54:56.423Z,16.30
2022-09-06T22:57:23.286Z,16.20
2022-09-06T22:59:49.985Z,16.20
2022-09-06T23:02:16.677Z,16.20
2022-09-06T23:04:43.399Z,16.20
2022-09-06T23:07:10.191Z,16.20
2022-09-06T23:09:36.903Z,16.30
2022-09-06T23:12:04.527Z,16.20
2022-09-06T23:14:31.220Z,16.20
2022-09-06T23:16:57.985Z,16.20
2022-09-06T23:19:25.004Z,16.20
2022-09-06T23:21:51.714Z,16.20
2022-09-06T23:24:18.469Z,16.20
2022-09-06T23:26:45.192Z,16.20
2022-09-06T23:29:12.783Z,16.20
2022-09-06T23:31:39.647Z,16.20
2022-09-06T23:34:06.419Z,16.20
2022-09-06T23:36:33.253Z,16.20
2022-09-06T23:39:01.786Z,16.20
2022-09-06T23:41:28.568Z,16.20
2022-09-06T23:43:55.356Z,16.30
2022-09-06T23:46:22.086Z,16.30
2022-09-06T23:48:48.969Z,16.30
2022-09-06T23:51:15.689Z,16.30
2022-09-06T23:53:42.429Z,16.30
2022-09-06T23:56:09.254Z,16.20
2022-09-06T23:58:36.599Z,16.20
